sensor_id;sensor_type;location;lat;lon;timestamp;pressure;altitude;pressure_sealevel;temperature;humidity
67740;BME280;54536;50.090;14.420;2023-02-10T00:01:14;101202.94;;;2.49;48.88
67740;BME280;54536;50.090;14.420;2023-02-10T00:03:40;101200.53;;;2.74;47.99
67740;BME280;54536;50.090;14.420;2023-02-10T00:06:08;101201.22;;;2.81;47.59
67740;BME280;54536;50.090;14.420;2023-02-10T00:08:35;101203.69;;;2.86;47.47
67740;BME280;54536;50.090;14.420;2023-02-10T00:11:04;101195.38;;;2.73;47.75
67740;BME280;54536;50.090;14.420;2023-02-10T00:13:32;101193.16;;;2.59;47.88
67740;BME280;54536;50.090;14.420;2023-02-10T00:16:02;101196.00;;;2.50;48.30
67740;BME280;54536;50.090;14.420;2023-02-10T00:18:28;101193.13;;;2.61;48.03
67740;BME280;54536;50.090;14.420;2023-02-10T00:20:54;101189.03;;;2.52;48.44
67740;BME280;54536;50.090;14.420;2023-02-10T00:23:21;101190.06;;;2.45;48.37
67740;BME280;54536;50.090;14.420;2023-02-10T00:25:47;101199.81;;;2.69;48.06
67740;BME280;54536;50.090;14.420;2023-02-10T00:28:13;101206.88;;;2.64;47.78
67740;BME280;54536;50.090;14.420;2023-02-10T00:30:39;101199.06;;;2.64;47.63
67740;BME280;54536;50.090;14.420;2023-02-10T00:33:06;101201.72;;;2.63;47.84
67740;BME280;54536;50.090;14.420;2023-02-10T00:35:31;101199.44;;;2.52;47.91
67740;BME280;54536;50.090;14.420;2023-02-10T00:37:58;101204.94;;;2.40;47.94
67740;BME280;54536;50.090;14.420;2023-02-10T00:40:24;101208.28;;;2.43;48.17
67740;BME280;54536;50.090;14.420;2023-02-10T00:42:50;101213.50;;;2.42;47.88
67740;BME280;54536;50.090;14.420;2023-02-10T00:45:16;101203.75;;;2.51;48.03
67740;BME280;54536;50.090;14.420;2023-02-10T00:47:43;101199.75;;;2.40;48.34
67740;BME280;54536;50.090;14.420;2023-02-10T00:50:09;101205.03;;;2.35;48.07
67740;BME280;54536;50.090;14.420;2023-02-10T00:52:35;101201.34;;;2.45;47.76
67740;BME280;54536;50.090;14.420;2023-02-10T00:55:01;101204.78;;;2.46;48.25
67740;BME280;54536;50.090;14.420;2023-02-10T00:57:28;101200.38;;;2.48;47.93
67740;BME280;54536;50.090;14.420;2023-02-10T00:59:54;101195.59;;;2.32;48.24
67740;BME280;54536;50.090;14.420;2023-02-10T01:02:20;101190.72;;;2.20;48.12
67740;BME280;54536;50.090;14.420;2023-02-10T01:04:46;101196.75;;;2.21;47.86
67740;BME280;54536;50.090;14.420;2023-02-10T01:07:12;101197.28;;;1.99;48.14
67740;BME280;54536;50.090;14.420;2023-02-10T01:09:39;101202.56;;;1.96;48.94
67740;BME280;54536;50.090;14.420;2023-02-10T01:12:05;101189.47;;;2.01;48.78
67740;BME280;54536;50.090;14.420;2023-02-10T01:14:32;101180.72;;;2.05;48.76
67740;BME280;54536;50.090;14.420;2023-02-10T01:16:59;101168.88;;;1.95;49.24
67740;BME280;54536;50.090;14.420;2023-02-10T01:19:25;101161.69;;;2.04;49.75
67740;BME280;54536;50.090;14.420;2023-02-10T01:21:52;101156.88;;;1.91;49.52
67740;BME280;54536;50.090;14.420;2023-02-10T01:24:18;101177.25;;;1.69;49.89
67740;BME280;54536;50.090;14.420;2023-02-10T01:26:44;101170.41;;;1.66;50.18
67740;BME280;54536;50.090;14.420;2023-02-10T01:29:10;101174.59;;;1.72;49.68
67740;BME280;54536;50.090;14.420;2023-02-10T01:31:36;101174.47;;;1.76;49.58
67740;BME280;54536;50.090;14.420;2023-02-10T01:34:02;101185.88;;;1.71;49.92
67740;BME280;54536;50.090;14.420;2023-02-10T01:36:29;101184.56;;;1.88;49.41
67740;BME280;54536;50.090;14.420;2023-02-10T01:38:55;101187.84;;;1.59;49.30
67740;BME280;54536;50.090;14.420;2023-02-10T01:41:23;101189.00;;;1.48;50.20
67740;BME280;54536;50.090;14.420;2023-02-10T01:44:04;101194.03;;;1.54;50.14
67740;BME280;54536;50.090;14.420;2023-02-10T01:46:34;101185.09;;;1.67;50.26
67740;BME280;54536;50.090;14.420;2023-02-10T01:49:05;101169.50;;;1.69;49.90
67740;BME280;54536;50.090;14.420;2023-02-10T01:51:42;101182.84;;;1.50;50.83
67740;BME280;54536;50.090;14.420;2023-02-10T01:54:16;101190.28;;;1.66;50.66
67740;BME280;54536;50.090;14.420;2023-02-10T01:56:46;101199.53;;;1.77;50.19
67740;BME280;54536;50.090;14.420;2023-02-10T01:59:14;101200.22;;;1.47;51.24
67740;BME280;54536;50.090;14.420;2023-02-10T02:01:41;101199.56;;;1.37;51.23
67740;BME280;54536;50.090;14.420;2023-02-10T02:04:07;101196.53;;;1.57;51.19
67740;BME280;54536;50.090;14.420;2023-02-10T02:06:35;101196.19;;;1.74;50.91
67740;BME280;54536;50.090;14.420;2023-02-10T02:09:02;101199.47;;;1.80;50.60
67740;BME280;54536;50.090;14.420;2023-02-10T02:11:59;101204.09;;;1.66;50.92
67740;BME280;54536;50.090;14.420;2023-02-10T02:14:41;101205.59;;;1.76;51.07
67740;BME280;54536;50.090;14.420;2023-02-10T02:20:30;101192.22;;;1.95;51.22
67740;BME280;54536;50.090;14.420;2023-02-10T02:26:40;101203.44;;;1.95;49.90
67740;BME280;54536;50.090;14.420;2023-02-10T02:37:33;101215.09;;;1.77;50.52
67740;BME280;54536;50.090;14.420;2023-02-10T02:40:00;101209.44;;;1.60;50.81
67740;BME280;54536;50.090;14.420;2023-02-10T02:42:30;101213.25;;;1.82;50.30
67740;BME280;54536;50.090;14.420;2023-02-10T02:53:13;101229.88;;;1.74;50.53
67740;BME280;54536;50.090;14.420;2023-02-10T02:55:48;101230.88;;;1.67;50.23
67740;BME280;54536;50.090;14.420;2023-02-10T03:00:50;101230.28;;;1.55;51.04
67740;BME280;54536;50.090;14.420;2023-02-10T03:03:18;101224.97;;;1.61;50.93
67740;BME280;54536;50.090;14.420;2023-02-10T03:05:44;101222.91;;;1.76;51.22
67740;BME280;54536;50.090;14.420;2023-02-10T03:08:10;101217.63;;;1.80;50.58
67740;BME280;54536;50.090;14.420;2023-02-10T03:10:36;101216.91;;;1.74;50.46
67740;BME280;54536;50.090;14.420;2023-02-10T03:13:02;101214.63;;;1.60;50.80
67740;BME280;54536;50.090;14.420;2023-02-10T03:15:29;101211.75;;;1.72;50.78
67740;BME280;54536;50.090;14.420;2023-02-10T03:17:56;101218.44;;;1.82;50.75
67740;BME280;54536;50.090;14.420;2023-02-10T03:20:22;101223.69;;;1.79;51.17
67740;BME280;54536;50.090;14.420;2023-02-10T03:22:49;101214.22;;;1.78;50.67
67740;BME280;54536;50.090;14.420;2023-02-10T03:25:15;101222.06;;;1.75;50.50
67740;BME280;54536;50.090;14.420;2023-02-10T03:27:41;101225.81;;;1.63;50.93
67740;BME280;54536;50.090;14.420;2023-02-10T03:30:08;101224.97;;;1.61;50.66
67740;BME280;54536;50.090;14.420;2023-02-10T03:32:34;101228.03;;;1.79;50.12
67740;BME280;54536;50.090;14.420;2023-02-10T03:35:01;101238.66;;;1.67;50.58
67740;BME280;54536;50.090;14.420;2023-02-10T03:37:27;101232.69;;;1.64;51.39
67740;BME280;54536;50.090;14.420;2023-02-10T03:39:53;101245.66;;;1.64;51.88
67740;BME280;54536;50.090;14.420;2023-02-10T03:42:19;101245.06;;;1.50;52.13
67740;BME280;54536;50.090;14.420;2023-02-10T03:44:45;101247.59;;;1.53;52.47
67740;BME280;54536;50.090;14.420;2023-02-10T03:47:11;101253.22;;;1.33;52.83
67740;BME280;54536;50.090;14.420;2023-02-10T03:49:38;101257.28;;;1.45;53.20
67740;BME280;54536;50.090;14.420;2023-02-10T03:52:04;101251.41;;;1.37;52.88
67740;BME280;54536;50.090;14.420;2023-02-10T03:54:30;101255.75;;;1.36;53.13
67740;BME280;54536;50.090;14.420;2023-02-10T03:56:57;101256.88;;;1.23;53.17
67740;BME280;54536;50.090;14.420;2023-02-10T03:59:23;101260.75;;;1.46;52.74
67740;BME280;54536;50.090;14.420;2023-02-10T04:01:49;101266.97;;;1.37;52.88
67740;BME280;54536;50.090;14.420;2023-02-10T04:04:15;101265.78;;;1.52;52.10
67740;BME280;54536;50.090;14.420;2023-02-10T04:06:41;101259.97;;;1.40;52.43
67740;BME280;54536;50.090;14.420;2023-02-10T04:09:08;101260.81;;;1.43;51.91
67740;BME280;54536;50.090;14.420;2023-02-10T04:11:34;101265.81;;;1.50;51.81
67740;BME280;54536;50.090;14.420;2023-02-10T04:14:00;101270.31;;;1.42;51.56
67740;BME280;54536;50.090;14.420;2023-02-10T04:16:26;101267.00;;;1.76;51.41
67740;BME280;54536;50.090;14.420;2023-02-10T04:18:54;101274.19;;;1.63;51.27
67740;BME280;54536;50.090;14.420;2023-02-10T04:21:20;101265.09;;;1.44;51.46
67740;BME280;54536;50.090;14.420;2023-02-10T04:23:47;101264.09;;;1.51;51.52
67740;BME280;54536;50.090;14.420;2023-02-10T04:26:13;101270.69;;;1.66;51.28
67740;BME280;54536;50.090;14.420;2023-02-10T04:28:39;101268.97;;;1.64;51.23
67740;BME280;54536;50.090;14.420;2023-02-10T04:31:05;101268.00;;;1.70;51.08
67740;BME280;54536;50.090;14.420;2023-02-10T04:33:32;101269.13;;;1.57;50.76
67740;BME280;54536;50.090;14.420;2023-02-10T04:35:58;101274.28;;;1.58;50.61
67740;BME280;54536;50.090;14.420;2023-02-10T04:38:24;101274.97;;;1.67;50.99
67740;BME280;54536;50.090;14.420;2023-02-10T04:40:50;101281.97;;;1.63;51.17
67740;BME280;54536;50.090;14.420;2023-02-10T04:43:17;101287.25;;;1.58;51.49
67740;BME280;54536;50.090;14.420;2023-02-10T04:45:43;101279.25;;;1.27;52.58
67740;BME280;54536;50.090;14.420;2023-02-10T04:48:09;101276.84;;;1.60;51.79
67740;BME280;54536;50.090;14.420;2023-02-10T04:50:36;101280.31;;;1.59;51.39
67740;BME280;54536;50.090;14.420;2023-02-10T04:53:04;101283.16;;;1.48;52.19
67740;BME280;54536;50.090;14.420;2023-02-10T04:55:30;101285.09;;;1.38;51.48
67740;BME280;54536;50.090;14.420;2023-02-10T04:57:56;101287.09;;;1.66;51.70
67740;BME280;54536;50.090;14.420;2023-02-10T05:00:22;101284.66;;;1.58;52.19
67740;BME280;54536;50.090;14.420;2023-02-10T05:02:49;101287.78;;;1.74;52.30
67740;BME280;54536;50.090;14.420;2023-02-10T05:05:15;101286.81;;;1.78;51.63
67740;BME280;54536;50.090;14.420;2023-02-10T05:07:41;101290.69;;;1.60;51.71
67740;BME280;54536;50.090;14.420;2023-02-10T05:10:08;101285.63;;;1.54;50.99
67740;BME280;54536;50.090;14.420;2023-02-10T05:12:34;101284.50;;;1.66;50.41
67740;BME280;54536;50.090;14.420;2023-02-10T05:15:00;101290.94;;;1.47;51.20
67740;BME280;54536;50.090;14.420;2023-02-10T05:17:27;101298.47;;;1.59;51.01
67740;BME280;54536;50.090;14.420;2023-02-10T05:19:53;101303.28;;;1.34;51.13
67740;BME280;54536;50.090;14.420;2023-02-10T05:22:19;101309.97;;;1.46;50.95
67740;BME280;54536;50.090;14.420;2023-02-10T05:24:47;101320.00;;;1.64;50.88
67740;BME280;54536;50.090;14.420;2023-02-10T05:27:15;101320.97;;;1.58;50.42
67740;BME280;54536;50.090;14.420;2023-02-10T05:29:41;101318.59;;;1.48;50.89
67740;BME280;54536;50.090;14.420;2023-02-10T05:32:08;101326.50;;;1.42;51.12
67740;BME280;54536;50.090;14.420;2023-02-10T05:34:34;101320.22;;;1.52;51.18
67740;BME280;54536;50.090;14.420;2023-02-10T05:37:00;101327.81;;;1.61;50.60
67740;BME280;54536;50.090;14.420;2023-02-10T05:39:26;101328.91;;;1.49;51.07
67740;BME280;54536;50.090;14.420;2023-02-10T05:41:55;101340.75;;;1.62;50.81
67740;BME280;54536;50.090;14.420;2023-02-10T05:44:24;101341.09;;;1.46;50.79
67740;BME280;54536;50.090;14.420;2023-02-10T05:46:51;101345.19;;;1.57;50.47
67740;BME280;54536;50.090;14.420;2023-02-10T05:49:18;101337.66;;;1.45;51.24
67740;BME280;54536;50.090;14.420;2023-02-10T05:51:45;101343.91;;;1.35;50.96
67740;BME280;54536;50.090;14.420;2023-02-10T05:54:12;101346.16;;;1.50;50.76
67740;BME280;54536;50.090;14.420;2023-02-10T05:56:39;101347.78;;;1.57;50.65
67740;BME280;54536;50.090;14.420;2023-02-10T05:59:05;101347.28;;;1.38;51.45
67740;BME280;54536;50.090;14.420;2023-02-10T06:01:32;101346.44;;;1.38;51.24
67740;BME280;54536;50.090;14.420;2023-02-10T06:03:59;101356.84;;;1.35;51.25
67740;BME280;54536;50.090;14.420;2023-02-10T06:06:25;101350.69;;;1.40;51.21
67740;BME280;54536;50.090;14.420;2023-02-10T06:08:51;101358.66;;;1.30;51.98
67740;BME280;54536;50.090;14.420;2023-02-10T06:11:17;101361.88;;;1.43;51.21
67740;BME280;54536;50.090;14.420;2023-02-10T06:13:43;101359.41;;;1.38;51.41
67740;BME280;54536;50.090;14.420;2023-02-10T06:16:10;101359.28;;;1.44;51.52
67740;BME280;54536;50.090;14.420;2023-02-10T06:18:37;101360.63;;;1.62;51.14
67740;BME280;54536;50.090;14.420;2023-02-10T06:21:04;101356.63;;;1.47;51.41
67740;BME280;54536;50.090;14.420;2023-02-10T06:23:30;101365.16;;;1.52;50.89
67740;BME280;54536;50.090;14.420;2023-02-10T06:25:56;101372.13;;;1.49;51.23
67740;BME280;54536;50.090;14.420;2023-02-10T06:28:25;101367.13;;;1.39;50.90
67740;BME280;54536;50.090;14.420;2023-02-10T06:30:52;101360.00;;;1.51;51.40
67740;BME280;54536;50.090;14.420;2023-02-10T06:33:19;101362.06;;;1.33;51.34
67740;BME280;54536;50.090;14.420;2023-02-10T06:35:46;101369.06;;;1.28;51.33
67740;BME280;54536;50.090;14.420;2023-02-10T06:38:13;101363.22;;;1.19;51.51
67740;BME280;54536;50.090;14.420;2023-02-10T06:40:39;101372.31;;;1.39;50.57
67740;BME280;54536;50.090;14.420;2023-02-10T06:43:05;101362.03;;;1.35;50.95
67740;BME280;54536;50.090;14.420;2023-02-10T06:45:32;101362.88;;;1.35;50.97
67740;BME280;54536;50.090;14.420;2023-02-10T06:47:59;101379.13;;;1.45;51.14
67740;BME280;54536;50.090;14.420;2023-02-10T06:50:25;101368.41;;;1.62;51.09
67740;BME280;54536;50.090;14.420;2023-02-10T06:52:51;101375.41;;;1.57;50.45
67740;BME280;54536;50.090;14.420;2023-02-10T06:55:17;101377.25;;;1.52;51.82
67740;BME280;54536;50.090;14.420;2023-02-10T06:57:44;101382.63;;;1.43;51.34
67740;BME280;54536;50.090;14.420;2023-02-10T07:00:13;101383.53;;;1.40;51.17
67740;BME280;54536;50.090;14.420;2023-02-10T07:02:40;101383.28;;;1.54;50.68
67740;BME280;54536;50.090;14.420;2023-02-10T07:05:08;101390.78;;;1.68;50.53
67740;BME280;54536;50.090;14.420;2023-02-10T07:07:36;101391.66;;;1.67;50.65
67740;BME280;54536;50.090;14.420;2023-02-10T07:10:04;101393.44;;;1.63;50.71
67740;BME280;54536;50.090;14.420;2023-02-10T07:12:30;101393.34;;;1.69;50.20
67740;BME280;54536;50.090;14.420;2023-02-10T07:14:57;101396.66;;;1.76;50.38
67740;BME280;54536;50.090;14.420;2023-02-10T07:17:23;101409.50;;;1.83;50.15
67740;BME280;54536;50.090;14.420;2023-02-10T07:19:49;101412.69;;;1.96;49.96
67740;BME280;54536;50.090;14.420;2023-02-10T07:22:15;101418.97;;;1.84;50.14
67740;BME280;54536;50.090;14.420;2023-02-10T07:24:41;101413.78;;;1.84;50.30
67740;BME280;54536;50.090;14.420;2023-02-10T07:27:07;101409.50;;;1.83;50.12
67740;BME280;54536;50.090;14.420;2023-02-10T07:29:34;101419.94;;;1.80;50.19
67740;BME280;54536;50.090;14.420;2023-02-10T07:32:00;101422.53;;;1.80;50.32
67740;BME280;54536;50.090;14.420;2023-02-10T07:34:27;101415.47;;;1.87;50.14
67740;BME280;54536;50.090;14.420;2023-02-10T07:36:56;101416.16;;;1.95;49.89
67740;BME280;54536;50.090;14.420;2023-02-10T07:39:24;101424.66;;;2.03;49.80
67740;BME280;54536;50.090;14.420;2023-02-10T07:41:50;101423.84;;;2.00;49.92
67740;BME280;54536;50.090;14.420;2023-02-10T07:44:18;101433.03;;;2.15;49.66
67740;BME280;54536;50.090;14.420;2023-02-10T07:46:45;101436.72;;;2.04;50.02
67740;BME280;54536;50.090;14.420;2023-02-10T07:49:11;101430.44;;;2.16;49.87
67740;BME280;54536;50.090;14.420;2023-02-10T07:51:37;101430.38;;;2.18;49.50
67740;BME280;54536;50.090;14.420;2023-02-10T07:54:03;101435.31;;;2.30;49.32
67740;BME280;54536;50.090;14.420;2023-02-10T07:56:29;101442.41;;;2.22;49.22
67740;BME280;54536;50.090;14.420;2023-02-10T07:58:56;101440.69;;;2.21;49.39
67740;BME280;54536;50.090;14.420;2023-02-10T08:01:21;101438.59;;;2.38;49.19
67740;BME280;54536;50.090;14.420;2023-02-10T08:03:48;101443.13;;;2.67;48.63
67740;BME280;54536;50.090;14.420;2023-02-10T08:06:22;101435.25;;;2.72;48.46
67740;BME280;54536;50.090;14.420;2023-02-10T08:08:48;101440.72;;;2.58;48.67
67740;BME280;54536;50.090;14.420;2023-02-10T08:11:16;101443.91;;;2.71;48.73
67740;BME280;54536;50.090;14.420;2023-02-10T08:13:42;101450.56;;;2.83;48.21
67740;BME280;54536;50.090;14.420;2023-02-10T08:16:09;101454.94;;;2.80;48.34
67740;BME280;54536;50.090;14.420;2023-02-10T08:18:38;101455.66;;;2.87;48.16
67740;BME280;54536;50.090;14.420;2023-02-10T08:21:05;101452.97;;;2.92;47.66
67740;BME280;54536;50.090;14.420;2023-02-10T08:23:32;101453.13;;;3.20;51.16
67740;BME280;54536;50.090;14.420;2023-02-10T08:26:02;101446.38;;;3.13;49.40
67740;BME280;54536;50.090;14.420;2023-02-10T08:28:29;101441.50;;;2.99;47.63
67740;BME280;54536;50.090;14.420;2023-02-10T08:30:59;101456.22;;;3.00;47.86
67740;BME280;54536;50.090;14.420;2023-02-10T08:33:25;101447.44;;;3.04;48.06
67740;BME280;54536;50.090;14.420;2023-02-10T08:35:51;101443.53;;;3.22;47.10
67740;BME280;54536;50.090;14.420;2023-02-10T08:38:18;101442.63;;;3.23;47.14
67740;BME280;54536;50.090;14.420;2023-02-10T08:40:44;101431.94;;;3.35;46.97
67740;BME280;54536;50.090;14.420;2023-02-10T08:43:10;101430.16;;;3.37;47.39
67740;BME280;54536;50.090;14.420;2023-02-10T08:45:37;101424.53;;;3.52;46.67
67740;BME280;54536;50.090;14.420;2023-02-10T08:48:06;101424.81;;;3.42;47.09
67740;BME280;54536;50.090;14.420;2023-02-10T08:50:32;101423.06;;;3.42;46.77
67740;BME280;54536;50.090;14.420;2023-02-10T08:52:58;101431.81;;;3.40;46.90
67740;BME280;54536;50.090;14.420;2023-02-10T08:55:24;101445.34;;;3.52;46.86
67740;BME280;54536;50.090;14.420;2023-02-10T08:57:50;101444.47;;;3.54;46.99
67740;BME280;54536;50.090;14.420;2023-02-10T09:00:16;101449.28;;;3.67;46.34
67740;BME280;54536;50.090;14.420;2023-02-10T09:02:42;101452.66;;;3.71;46.44
67740;BME280;54536;50.090;14.420;2023-02-10T09:05:10;101456.41;;;3.61;46.51
67740;BME280;54536;50.090;14.420;2023-02-10T09:07:37;101471.41;;;3.49;46.99
67740;BME280;54536;50.090;14.420;2023-02-10T09:10:03;101481.06;;;3.79;46.51
67740;BME280;54536;50.090;14.420;2023-02-10T09:12:30;101487.00;;;3.84;46.67
67740;BME280;54536;50.090;14.420;2023-02-10T09:14:56;101485.41;;;3.78;46.41
67740;BME280;54536;50.090;14.420;2023-02-10T09:17:22;101484.19;;;3.91;45.85
67740;BME280;54536;50.090;14.420;2023-02-10T09:19:48;101476.94;;;4.03;47.08
67740;BME280;54536;50.090;14.420;2023-02-10T09:22:14;101472.50;;;4.06;46.23
67740;BME280;54536;50.090;14.420;2023-02-10T09:24:42;101464.88;;;3.98;46.62
67740;BME280;54536;50.090;14.420;2023-02-10T09:27:13;101465.97;;;3.91;46.51
67740;BME280;54536;50.090;14.420;2023-02-10T09:29:39;101458.31;;;3.85;46.94
67740;BME280;54536;50.090;14.420;2023-02-10T09:32:05;101458.06;;;3.94;47.01
67740;BME280;54536;50.090;14.420;2023-02-10T09:34:31;101461.50;;;3.96;47.37
67740;BME280;54536;50.090;14.420;2023-02-10T09:36:58;101479.19;;;4.15;46.21
67740;BME280;54536;50.090;14.420;2023-02-10T09:39:28;101476.28;;;4.26;46.26
67740;BME280;54536;50.090;14.420;2023-02-10T09:44:38;101477.75;;;4.34;46.25
67740;BME280;54536;50.090;14.420;2023-02-10T09:49:54;101463.78;;;4.37;46.51
67740;BME280;54536;50.090;14.420;2023-02-10T09:52:41;101471.44;;;4.43;46.35
67740;BME280;54536;50.090;14.420;2023-02-10T09:55:34;101471.50;;;4.41;46.45
67740;BME280;54536;50.090;14.420;2023-02-10T09:58:13;101474.78;;;4.46;46.17
67740;BME280;54536;50.090;14.420;2023-02-10T10:00:44;101472.28;;;4.43;46.29
67740;BME280;54536;50.090;14.420;2023-02-10T10:03:27;101481.13;;;4.38;46.89
67740;BME280;54536;50.090;14.420;2023-02-10T10:06:02;101480.84;;;4.47;46.43
67740;BME280;54536;50.090;14.420;2023-02-10T10:11:36;101473.69;;;4.54;46.32
67740;BME280;54536;50.090;14.420;2023-02-10T10:14:15;101480.41;;;4.62;46.40
67740;BME280;54536;50.090;14.420;2023-02-10T10:33:51;101465.63;;;4.89;46.42
67740;BME280;54536;50.090;14.420;2023-02-10T10:36:29;101474.38;;;4.88;46.94
67740;BME280;54536;50.090;14.420;2023-02-10T10:39:03;101469.19;;;4.87;46.98
67740;BME280;54536;50.090;14.420;2023-02-10T10:41:37;101469.22;;;5.13;46.90
67740;BME280;54536;50.090;14.420;2023-02-10T10:44:04;101481.59;;;5.33;49.34
67740;BME280;54536;50.090;14.420;2023-02-10T10:46:38;101475.84;;;5.24;48.45
67740;BME280;54536;50.090;14.420;2023-02-10T10:49:08;101473.28;;;5.22;46.22
67740;BME280;54536;50.090;14.420;2023-02-10T10:51:35;101470.84;;;5.16;46.84
67740;BME280;54536;50.090;14.420;2023-02-10T10:54:04;101471.81;;;5.40;47.21
67740;BME280;54536;50.090;14.420;2023-02-10T10:56:43;101466.38;;;5.20;46.52
67740;BME280;54536;50.090;14.420;2023-02-10T10:59:27;101462.25;;;5.39;45.93
67740;BME280;54536;50.090;14.420;2023-02-10T11:01:55;101470.91;;;5.41;46.17
67740;BME280;54536;50.090;14.420;2023-02-10T11:04:23;101470.72;;;5.46;46.30
67740;BME280;54536;50.090;14.420;2023-02-10T11:06:53;101468.28;;;5.41;45.94
67740;BME280;54536;50.090;14.420;2023-02-10T11:09:38;101463.06;;;5.41;45.90
67740;BME280;54536;50.090;14.420;2023-02-10T11:15:01;101464.22;;;5.32;46.17
67740;BME280;54536;50.090;14.420;2023-02-10T11:20:05;101468.03;;;5.24;46.23
67740;BME280;54536;50.090;14.420;2023-02-10T11:22:43;101464.34;;;5.29;46.25
67740;BME280;54536;50.090;14.420;2023-02-10T11:25:32;101462.13;;;5.44;46.40
67740;BME280;54536;50.090;14.420;2023-02-10T11:28:01;101461.09;;;5.48;46.07
67740;BME280;54536;50.090;14.420;2023-02-10T11:30:34;101466.88;;;5.57;46.00
67740;BME280;54536;50.090;14.420;2023-02-10T11:33:02;101462.22;;;5.66;45.71
67740;BME280;54536;50.090;14.420;2023-02-10T11:35:30;101459.78;;;5.61;45.87
67740;BME280;54536;50.090;14.420;2023-02-10T11:38:04;101446.78;;;5.59;46.35
67740;BME280;54536;50.090;14.420;2023-02-10T11:43:17;101441.72;;;5.80;46.34
67740;BME280;54536;50.090;14.420;2023-02-10T11:46:00;101447.84;;;5.79;46.38
67740;BME280;54536;50.090;14.420;2023-02-10T11:48:28;101432.56;;;5.93;45.51
67740;BME280;54536;50.090;14.420;2023-02-10T11:51:12;101435.59;;;6.04;45.57
67740;BME280;54536;50.090;14.420;2023-02-10T11:53:40;101442.94;;;5.95;45.26
67740;BME280;54536;50.090;14.420;2023-02-10T11:56:31;101434.44;;;6.13;45.54
67740;BME280;54536;50.090;14.420;2023-02-10T11:59:23;101434.09;;;5.99;45.61
67740;BME280;54536;50.090;14.420;2023-02-10T12:01:58;101440.59;;;6.10;45.84
67740;BME280;54536;50.090;14.420;2023-02-10T12:09:56;101438.63;;;6.17;45.32
67740;BME280;54536;50.090;14.420;2023-02-10T12:15:17;101437.19;;;6.32;45.95
67740;BME280;54536;50.090;14.420;2023-02-10T12:26:52;101423.25;;;6.09;46.43
67740;BME280;54536;50.090;14.420;2023-02-10T12:29:52;101422.56;;;6.04;45.72
67740;BME280;54536;50.090;14.420;2023-02-10T12:38:25;101416.94;;;6.15;46.24
67740;BME280;54536;50.090;14.420;2023-02-10T12:41:21;101408.13;;;6.18;46.47
67740;BME280;54536;50.090;14.420;2023-02-10T12:46:53;101411.03;;;6.10;46.05
67740;BME280;54536;50.090;14.420;2023-02-10T12:52:34;101404.09;;;6.32;46.19
67740;BME280;54536;50.090;14.420;2023-02-10T12:55:18;101405.50;;;6.18;45.95
67740;BME280;54536;50.090;14.420;2023-02-10T12:58:04;101402.19;;;6.36;45.68
67740;BME280;54536;50.090;14.420;2023-02-10T13:00:37;101399.91;;;6.28;45.71
67740;BME280;54536;50.090;14.420;2023-02-10T13:03:12;101401.41;;;6.34;45.93
67740;BME280;54536;50.090;14.420;2023-02-10T13:05:50;101401.16;;;6.40;45.27
67740;BME280;54536;50.090;14.420;2023-02-10T13:08:24;101396.16;;;6.34;46.19
67740;BME280;54536;50.090;14.420;2023-02-10T13:10:59;101397.47;;;6.46;46.70
67740;BME280;54536;50.090;14.420;2023-02-10T13:13:30;101397.22;;;6.52;46.55
67740;BME280;54536;50.090;14.420;2023-02-10T13:16:08;101397.84;;;6.59;45.71
67740;BME280;54536;50.090;14.420;2023-02-10T13:21:43;101392.13;;;6.71;45.59
67740;BME280;54536;50.090;14.420;2023-02-10T13:24:47;101394.72;;;6.71;45.67
67740;BME280;54536;50.090;14.420;2023-02-10T13:27:41;101402.88;;;6.63;45.33
67740;BME280;54536;50.090;14.420;2023-02-10T13:30:25;101400.13;;;6.66;45.97
67740;BME280;54536;50.090;14.420;2023-02-10T13:33:28;101395.88;;;6.64;44.94
67740;BME280;54536;50.090;14.420;2023-02-10T13:35:59;101392.00;;;6.74;45.37
67740;BME280;54536;50.090;14.420;2023-02-10T13:38:31;101388.09;;;6.84;45.99
67740;BME280;54536;50.090;14.420;2023-02-10T13:40:59;101390.22;;;6.74;45.01
67740;BME280;54536;50.090;14.420;2023-02-10T13:43:54;101392.16;;;6.69;44.77
67740;BME280;54536;50.090;14.420;2023-02-10T13:46:26;101389.25;;;6.77;45.20
67740;BME280;54536;50.090;14.420;2023-02-10T13:48:56;101391.78;;;6.78;45.43
67740;BME280;54536;50.090;14.420;2023-02-10T13:51:36;101387.00;;;6.68;45.52
67740;BME280;54536;50.090;14.420;2023-02-10T13:54:04;101386.03;;;6.70;45.58
67740;BME280;54536;50.090;14.420;2023-02-10T13:56:33;101385.63;;;6.79;46.60
67740;BME280;54536;50.090;14.420;2023-02-10T14:02:01;101400.19;;;6.87;46.24
67740;BME280;54536;50.090;14.420;2023-02-10T14:04:45;101393.34;;;6.83;45.73
67740;BME280;54536;50.090;14.420;2023-02-10T14:07:35;101388.94;;;6.85;45.48
67740;BME280;54536;50.090;14.420;2023-02-10T14:12:29;101386.31;;;6.85;45.24
67740;BME280;54536;50.090;14.420;2023-02-10T14:14:55;101399.06;;;6.92;45.67
67740;BME280;54536;50.090;14.420;2023-02-10T14:17:25;101396.66;;;6.88;45.45
67740;BME280;54536;50.090;14.420;2023-02-10T14:19:57;101396.91;;;6.82;45.47
67740;BME280;54536;50.090;14.420;2023-02-10T14:22:33;101388.84;;;6.86;45.79
67740;BME280;54536;50.090;14.420;2023-02-10T14:25:20;101390.56;;;6.87;45.67
67740;BME280;54536;50.090;14.420;2023-02-10T14:27:54;101387.31;;;7.02;45.09
67740;BME280;54536;50.090;14.420;2023-02-10T14:30:32;101381.94;;;6.85;45.22
67740;BME280;54536;50.090;14.420;2023-02-10T14:33:00;101385.09;;;6.93;44.90
67740;BME280;54536;50.090;14.420;2023-02-10T14:35:27;101382.19;;;6.99;45.24
67740;BME280;54536;50.090;14.420;2023-02-10T14:37:58;101382.47;;;6.93;45.24
67740;BME280;54536;50.090;14.420;2023-02-10T14:40:27;101380.84;;;6.91;45.16